Time;durP1;ratioP1;P1;durP2;ratioP2;P2;SDS_P1;SDS_P2;PMS_P1;PMS_P2;Temp;Humidity;BMP_temperature;BMP_pressure;BME280_temperature;BME280_humidity;BME280_pressure;Samples;Min_cycle;Max_cycle;Signal;HPM_P1;HPM_P2
2022/01/10 00:01:28;;;;;;;37.85;18.42;;;2.00;99.90;;;;;;5055475;28;20091;-86
2022/01/10 00:03:55;;;;;;;34.33;17.00;;;2.00;99.90;;;;;;5037492;28;20029;-87
2022/01/10 00:06:20;;;;;;;40.28;19.67;;;2.00;99.90;;;;;;5036938;28;20029;-86
2022/01/10 00:08:46;;;;;;;41.38;21.02;;;2.00;99.90;;;;;;5037350;28;20078;-85
2022/01/10 00:11:12;;;;;;;45.40;21.83;;;2.00;99.90;;;;;;5055236;28;20029;-86
2022/01/10 00:13:37;;;;;;;41.25;20.35;;;1.90;99.90;;;;;;5055481;28;20033;-87
2022/01/10 00:16:03;;;;;;;43.78;21.63;;;1.90;99.90;;;;;;5054265;28;20032;-85
2022/01/10 00:18:29;;;;;;;41.90;21.38;;;1.90;99.90;;;;;;5054461;28;20037;-85
2022/01/10 00:20:54;;;;;;;41.95;19.73;;;1.90;99.90;;;;;;5058283;28;20036;-85
2022/01/10 00:23:20;;;;;;;40.88;19.80;;;1.90;99.90;;;;;;5037122;28;20361;-85
2022/01/10 00:25:46;;;;;;;42.50;19.83;;;1.90;99.90;;;;;;5054695;28;20032;-87
2022/01/10 00:28:11;;;;;;;36.33;18.00;;;1.90;99.90;;;;;;5036449;28;20032;-86
2022/01/10 00:30:37;;;;;;;38.92;18.63;;;1.90;99.90;;;;;;5037269;28;20125;-88
2022/01/10 00:33:03;;;;;;;41.40;20.27;;;1.90;99.90;;;;;;5036955;28;20479;-89
2022/01/10 00:35:28;;;;;;;43.25;19.95;;;2.00;99.90;;;;;;5054675;28;20029;-89
2022/01/10 00:37:54;;;;;;;42.30;20.50;;;2.00;99.90;;;;;;5036875;28;20068;-90
2022/01/10 00:40:20;;;;;;;38.45;20.00;;;2.00;99.90;;;;;;5054699;28;20025;-89
2022/01/10 00:42:54;;;;;;;40.83;20.30;;;2.00;99.90;;;;;;5037172;28;20025;-89
2022/01/10 00:45:23;;;;;;;41.53;21.98;;;2.00;99.90;;;;;;5054323;28;20383;-89
2022/01/10 00:47:49;;;;;;;43.08;21.23;;;2.00;99.90;;;;;;5036440;28;20074;-88
2022/01/10 00:50:16;;;;;;;41.05;19.73;;;2.00;99.90;;;;;;5036430;28;20029;-89
2022/01/10 00:52:42;;;;;;;41.10;20.73;;;1.90;99.90;;;;;;5020128;28;20041;-90
2022/01/10 00:55:09;;;;;;;40.70;18.67;;;2.00;99.90;;;;;;5056720;28;20028;-89
2022/01/10 00:57:35;;;;;;;39.85;18.35;;;2.00;99.90;;;;;;5056756;28;20037;-89
2022/01/10 01:00:01;;;;;;;40.28;19.05;;;1.90;99.90;;;;;;5054816;28;20029;-90
2022/01/10 01:02:31;;;;;;;40.97;20.77;;;2.00;99.90;;;;;;5054178;28;20119;-88
2022/01/10 01:04:59;;;;;;;39.53;19.10;;;2.00;99.90;;;;;;5054315;28;20479;-88
2022/01/10 01:07:24;;;;;;;43.53;19.67;;;2.00;99.90;;;;;;5036501;28;20039;-88
2022/01/10 01:10:01;;;;;;;43.92;20.00;;;1.90;99.90;;;;;;5036350;28;20367;-88
2022/01/10 01:13:24;;;;;;;46.78;22.55;;;2.00;99.90;;;;;;5054817;28;20117;-88
2022/01/10 01:15:23;;;;;;;41.58;20.50;;;2.00;99.90;;;;;;5043647;28;20041;-89
2022/01/10 01:18:10;;;;;;;40.08;18.90;;;1.90;99.90;;;;;;5054824;28;20116;-86
2022/01/10 01:25:56;;;;;;;43.08;20.60;;;2.00;99.90;;;;;;5056369;28;20036;-88
2022/01/10 01:28:22;;;;;;;40.45;20.13;;;2.00;99.90;;;;;;5059854;28;20040;-88
2022/01/10 01:30:48;;;;;;;43.80;21.58;;;2.00;99.90;;;;;;5060497;28;20029;-87
2022/01/10 01:33:15;;;;;;;48.15;23.00;;;2.00;99.90;;;;;;5060453;28;20029;-89
2022/01/10 01:35:41;;;;;;;40.75;21.27;;;2.00;99.90;;;;;;5058499;28;20036;-89
2022/01/10 01:38:08;;;;;;;38.35;18.73;;;2.00;99.90;;;;;;5039981;28;20033;-89
2022/01/10 01:40:43;;;;;;;35.95;17.45;;;2.00;99.90;;;;;;5058276;28;20405;-89
2022/01/10 01:43:08;;;;;;;34.38;16.17;;;2.00;99.90;;;;;;5040054;28;20032;-89
2022/01/10 01:45:35;;;;;;;26.90;14.50;;;2.00;99.90;;;;;;5057594;28;20029;-88
2022/01/10 01:48:01;;;;;;;28.55;13.88;;;2.00;99.90;;;;;;5057167;28;20127;-87
2022/01/10 01:50:27;;;;;;;28.98;13.63;;;2.00;99.90;;;;;;5057097;28;20036;-88
2022/01/10 01:52:52;;;;;;;24.88;12.38;;;2.00;99.90;;;;;;5057250;28;20031;-88
2022/01/10 01:55:18;;;;;;;31.52;15.40;;;2.00;99.90;;;;;;5057489;28;20451;-89
2022/01/10 01:57:45;;;;;;;35.05;16.17;;;2.00;99.90;;;;;;5039569;28;20036;-88
2022/01/10 02:00:11;;;;;;;35.03;17.17;;;2.00;99.90;;;;;;5038980;28;20032;-86
2022/01/10 02:02:36;;;;;;;30.85;14.60;;;2.00;99.90;;;;;;5056873;28;20048;-87
2022/01/10 02:05:02;;;;;;;31.02;16.33;;;2.00;99.90;;;;;;5058472;28;20029;-87
2022/01/10 02:07:28;;;;;;;31.75;15.95;;;2.00;99.90;;;;;;5039207;28;20033;-87
2022/01/10 02:09:53;;;;;;;32.38;17.15;;;1.90;99.90;;;;;;5057023;28;20079;-88
2022/01/10 02:12:19;;;;;;;36.13;17.45;;;1.90;99.90;;;;;;5039013;28;20021;-87
2022/01/10 02:14:47;;;;;;;30.63;15.05;;;1.90;99.90;;;;;;5056955;28;20082;-83
2022/01/10 02:17:16;;;;;;;26.20;12.45;;;1.90;99.90;;;;;;5038818;28;20029;-80
2022/01/10 02:19:51;;;;;;;31.80;14.23;;;1.90;99.90;;;;;;5038721;28;20128;-85
2022/01/10 02:22:17;;;;;;;36.60;12.25;;;1.90;99.90;;;;;;5056550;28;20044;-85
2022/01/10 02:24:42;;;;;;;23.67;11.93;;;2.00;99.90;;;;;;5056966;28;20055;-85
2022/01/10 02:27:08;;;;;;;23.85;11.80;;;2.00;99.90;;;;;;5056342;28;20360;-85
2022/01/10 02:29:36;;;;;;;24.17;11.40;;;1.90;99.90;;;;;;5056165;28;20102;-86
2022/01/10 02:32:03;;;;;;;29.35;12.90;;;2.00;99.90;;;;;;5056564;28;20031;-86
2022/01/10 02:34:28;;;;;;;34.00;14.68;;;1.90;99.90;;;;;;5056496;28;20451;-86
2022/01/10 02:36:57;;;;;;;23.45;11.48;;;1.90;99.90;;;;;;5056802;28;20029;-86
2022/01/10 02:39:23;;;;;;;21.30;10.55;;;1.90;99.90;;;;;;5037900;28;20033;-86
2022/01/10 02:41:48;;;;;;;17.92;10.30;;;1.80;99.90;;;;;;5038285;28;20140;-85
2022/01/10 02:44:15;;;;;;;17.75;9.80;;;1.80;99.90;;;;;;5038669;28;20033;-86
2022/01/10 02:46:42;;;;;;;17.88;9.73;;;1.80;99.90;;;;;;5038327;28;20032;-86
2022/01/10 02:49:10;;;;;;;19.70;10.40;;;1.80;99.90;;;;;;5055996;28;20033;-85
2022/01/10 02:51:37;;;;;;;22.58;11.85;;;1.70;99.90;;;;;;5038401;28;20025;-85
2022/01/10 02:54:02;;;;;;;21.88;11.73;;;1.80;99.90;;;;;;5056481;28;20021;-85
2022/01/10 02:56:28;;;;;;;18.80;10.13;;;1.80;99.90;;;;;;5038952;28;20454;-85
2022/01/10 02:58:54;;;;;;;23.05;12.48;;;1.80;99.90;;;;;;5056726;28;20384;-85
2022/01/10 03:01:19;;;;;;;20.27;10.98;;;1.70;99.90;;;;;;5057181;28;20056;-84
2022/01/10 03:03:45;;;;;;;18.80;10.88;;;1.70;99.90;;;;;;5055664;28;20029;-86
2022/01/10 03:06:11;;;;;;;17.50;9.07;;;1.80;99.90;;;;;;5037566;28;20047;-84
2022/01/10 03:08:37;;;;;;;16.15;9.05;;;1.70;99.90;;;;;;5037002;28;20525;-86
2022/01/10 03:11:03;;;;;;;17.52;9.82;;;1.70;99.90;;;;;;5037897;28;20025;-85
2022/01/10 03:13:28;;;;;;;19.92;10.27;;;1.70;99.90;;;;;;5037689;28;20121;-86
2022/01/10 03:15:54;;;;;;;16.50;8.88;;;1.70;99.90;;;;;;5037551;28;20068;-86
2022/01/10 03:18:20;;;;;;;16.52;9.55;;;1.70;99.90;;;;;;5037645;28;20426;-87
2022/01/10 03:20:46;;;;;;;18.42;9.98;;;1.70;99.90;;;;;;5055643;28;20086;-86
2022/01/10 03:23:12;;;;;;;21.80;11.13;;;1.70;99.90;;;;;;5037535;28;20033;-85
2022/01/10 03:25:37;;;;;;;20.73;10.43;;;1.70;99.90;;;;;;5037352;28;20025;-86
2022/01/10 03:28:04;;;;;;;21.33;9.73;;;1.70;99.90;;;;;;5037655;28;20111;-86
2022/01/10 03:30:30;;;;;;;17.40;9.38;;;1.70;99.90;;;;;;5055504;28;20029;-86
2022/01/10 03:32:58;;;;;;;16.42;8.45;;;1.70;99.90;;;;;;5037238;28;20025;-86
2022/01/10 03:35:23;;;;;;;15.30;8.23;;;1.70;99.90;;;;;;5055329;28;20025;-86
2022/01/10 03:37:49;;;;;;;14.85;7.93;;;1.70;99.90;;;;;;5055346;28;20037;-86
2022/01/10 03:40:15;;;;;;;14.35;7.38;;;1.70;99.90;;;;;;5037396;28;20120;-87
2022/01/10 03:42:41;;;;;;;13.20;6.97;;;1.70;99.90;;;;;;5038233;28;20451;-88
2022/01/10 03:45:07;;;;;;;12.80;7.18;;;1.70;99.90;;;;;;5056619;28;20029;-87
2022/01/10 03:47:33;;;;;;;9.93;6.00;;;1.80;99.90;;;;;;5037623;28;20116;-86
2022/01/10 03:49:59;;;;;;;11.05;6.05;;;1.80;99.90;;;;;;5068736;28;20029;-90
2022/01/10 03:52:26;;;;;;;9.60;5.63;;;1.80;99.90;;;;;;5065197;28;20033;-90
2022/01/10 03:54:52;;;;;;;11.80;6.05;;;1.70;99.90;;;;;;5056076;28;20017;-92
2022/01/10 03:57:18;;;;;;;11.07;6.15;;;1.70;99.90;;;;;;5055812;28;20052;-88
2022/01/10 03:59:43;;;;;;;11.68;6.25;;;1.80;99.90;;;;;;5036972;28;20110;-88
2022/01/10 04:02:09;;;;;;;12.23;6.55;;;1.80;99.90;;;;;;5059749;28;20045;-87
2022/01/10 04:04:38;;;;;;;13.77;7.25;;;1.80;99.90;;;;;;5064857;28;20029;-89
2022/01/10 04:07:05;;;;;;;10.48;5.95;;;1.80;99.90;;;;;;5058812;28;20017;-90
2022/01/10 04:09:30;;;;;;;11.15;5.88;;;1.80;99.90;;;;;;5037187;28;20100;-90
2022/01/10 04:11:56;;;;;;;10.77;6.07;;;1.70;99.90;;;;;;5058977;28;20078;-88
2022/01/10 04:14:22;;;;;;;9.52;5.82;;;1.70;99.90;;;;;;5055068;28;20032;-91
2022/01/10 04:16:56;;;;;;;10.45;6.35;;;1.70;99.90;;;;;;5058820;28;20083;-91
2022/01/10 04:19:22;;;;;;;10.13;6.00;;;1.70;99.90;;;;;;5038295;28;20486;-90
2022/01/10 04:21:47;;;;;;;10.43;6.15;;;1.70;99.90;;;;;;5038015;28;20037;-91
2022/01/10 04:24:15;;;;;;;10.70;6.47;;;1.70;99.90;;;;;;5056006;28;20028;-91
2022/01/10 04:26:41;;;;;;;10.25;6.07;;;1.70;99.90;;;;;;5038032;28;20055;-91
2022/01/10 04:29:06;;;;;;;11.30;6.25;;;1.60;99.90;;;;;;5038777;28;20481;-93
2022/01/10 04:31:32;;;;;;;13.07;7.50;;;1.70;99.90;;;;;;5055568;28;20396;-90
2022/01/10 04:33:58;;;;;;;14.73;8.55;;;1.60;99.90;;;;;;5055678;28;20029;-90
2022/01/10 04:36:24;;;;;;;13.27;8.05;;;1.70;99.90;;;;;;5040826;28;20026;-92
2022/01/10 04:38:51;;;;;;;13.45;7.65;;;1.60;99.90;;;;;;5039355;28;20033;-93
2022/01/10 04:41:16;;;;;;;17.15;8.98;;;1.60;99.90;;;;;;5055320;28;20405;-93
2022/01/10 04:43:42;;;;;;;14.75;8.07;;;1.60;99.90;;;;;;5054992;28;20029;-91
2022/01/10 04:46:09;;;;;;;15.20;8.52;;;1.60;99.90;;;;;;5055864;28;20032;-91
2022/01/10 04:48:34;;;;;;;18.52;10.77;;;1.60;99.90;;;;;;5038029;28;20064;-93
2022/01/10 04:51:16;;;;;;;18.92;10.35;;;1.60;99.90;;;;;;5056066;28;20036;-92
2022/01/10 04:53:53;;;;;;;20.90;10.82;;;1.60;99.90;;;;;;5038738;28;20029;-92
2022/01/10 04:56:19;;;;;;;17.45;10.10;;;1.50;99.90;;;;;;5036970;28;20029;-91
2022/01/10 04:58:47;;;;;;;19.73;10.75;;;1.50;99.90;;;;;;5056360;28;20044;-92
2022/01/10 05:01:14;;;;;;;19.25;10.55;;;1.50;99.90;;;;;;5058409;28;20045;-93
2022/01/10 05:03:41;;;;;;;18.25;10.35;;;1.50;99.90;;;;;;5017761;28;20033;-88
2022/01/10 05:06:07;;;;;;;19.92;10.48;;;1.50;99.90;;;;;;5026529;28;20033;-89
2022/01/10 05:08:33;;;;;;;20.42;11.10;;;1.50;99.90;;;;;;5042528;28;20084;-91
2022/01/10 05:10:59;;;;;;;19.83;10.75;;;1.50;99.90;;;;;;5039064;28;20029;-88
2022/01/10 05:13:25;;;;;;;22.75;12.32;;;1.50;99.90;;;;;;5029595;28;20518;-90
2022/01/10 05:15:52;;;;;;;22.55;12.23;;;1.50;99.90;;;;;;5041570;28;20402;-95
2022/01/10 05:18:20;;;;;;;23.08;12.15;;;1.50;99.90;;;;;;5043523;28;20079;-92
2022/01/10 05:20:46;;;;;;;23.45;12.07;;;1.50;99.90;;;;;;5063641;28;20029;-96
2022/01/10 05:23:12;;;;;;;24.85;12.35;;;1.50;99.90;;;;;;5044671;28;20032;-96
2022/01/10 05:25:40;;;;;;;20.95;11.10;;;1.50;99.90;;;;;;5042668;28;20048;-93
2022/01/10 05:28:11;;;;;;;23.10;11.35;;;1.50;99.90;;;;;;5060727;28;20048;-93
2022/01/10 05:30:39;;;;;;;21.63;11.65;;;1.50;99.90;;;;;;5041297;28;20025;-90
2022/01/10 05:33:07;;;;;;;21.67;11.48;;;1.50;99.90;;;;;;5040636;28;20037;-89
2022/01/10 05:35:34;;;;;;;22.27;11.38;;;1.50;99.90;;;;;;5058390;28;20025;-89
2022/01/10 05:38:00;;;;;;;24.67;13.18;;;1.40;99.90;;;;;;5059933;28;20055;-90
2022/01/10 05:40:26;;;;;;;24.75;13.15;;;1.40;99.90;;;;;;5043110;28;20088;-88
2022/01/10 05:42:51;;;;;;;24.00;11.88;;;1.40;99.90;;;;;;5042389;28;20021;-88
2022/01/10 05:45:20;;;;;;;22.42;12.00;;;1.40;99.90;;;;;;5065416;28;20099;-92
2022/01/10 05:47:46;;;;;;;19.63;10.40;;;1.40;99.90;;;;;;5043784;28;20029;-92
2022/01/10 05:50:14;;;;;;;21.90;11.60;;;1.40;99.90;;;;;;5041796;28;20017;-87
2022/01/10 05:52:40;;;;;;;24.20;12.93;;;1.50;99.90;;;;;;5039670;28;20390;-87
2022/01/10 05:55:06;;;;;;;24.40;12.85;;;1.40;99.90;;;;;;5039853;28;20159;-87
2022/01/10 05:57:32;;;;;;;22.48;11.30;;;1.40;99.90;;;;;;5039907;28;20063;-88
2022/01/10 05:59:58;;;;;;;24.90;13.15;;;1.40;99.90;;;;;;5057746;28;20025;-88
2022/01/10 06:02:24;;;;;;;21.83;11.48;;;1.40;99.90;;;;;;5039829;28;20475;-89
2022/01/10 06:04:49;;;;;;;21.13;10.90;;;1.40;99.90;;;;;;5039767;28;20353;-86
2022/01/10 06:07:15;;;;;;;20.70;11.35;;;1.40;99.90;;;;;;5061806;28;20085;-88
2022/01/10 06:09:41;;;;;;;20.02;10.98;;;1.40;99.90;;;;;;5048005;28;20032;-91
2022/01/10 06:12:09;;;;;;;20.13;10.07;;;1.40;99.90;;;;;;5063571;28;20037;-91
2022/01/10 06:14:34;;;;;;;21.17;11.20;;;1.40;99.90;;;;;;5063383;28;20499;-96
2022/01/10 06:17:00;;;;;;;20.35;11.02;;;1.50;99.90;;;;;;5049288;28;20468;-96
2022/01/10 06:19:26;;;;;;;21.88;11.52;;;1.50;99.90;;;;;;5060359;28;20090;-90
2022/01/10 06:21:52;;;;;;;23.55;12.38;;;1.40;99.90;;;;;;5060143;28;20606;-90
2022/01/10 06:24:25;;;;;;;19.05;10.38;;;1.50;99.90;;;;;;5057775;28;20036;-93
2022/01/10 06:26:52;;;;;;;23.42;12.55;;;1.40;99.90;;;;;;5058893;28;20040;-90
2022/01/10 06:29:18;;;;;;;20.20;10.60;;;1.40;99.90;;;;;;5040595;28;20092;-88
2022/01/10 06:31:43;;;;;;;21.42;11.25;;;1.40;99.90;;;;;;5059613;28;20059;-95
2022/01/10 06:34:09;;;;;;;20.90;10.95;;;1.40;99.90;;;;;;5042411;28;20021;-92
2022/01/10 06:36:35;;;;;;;19.95;11.20;;;1.40;99.90;;;;;;5041614;28;20040;-90
2022/01/10 06:39:09;;;;;;;20.65;10.90;;;1.40;99.90;;;;;;5039388;28;20044;-91
2022/01/10 06:41:44;;;;;;;20.50;11.48;;;1.30;99.90;;;;;;5040183;28;20039;-88
2022/01/10 06:44:12;;;;;;;28.08;13.73;;;1.40;99.90;;;;;;5057229;28;20033;-88
2022/01/10 06:46:38;;;;;;;24.50;13.05;;;1.30;99.90;;;;;;5037716;28;20483;-84
2022/01/10 06:49:04;;;;;;;32.22;16.15;;;1.30;99.90;;;;;;5037620;28;20029;-85
2022/01/10 06:51:30;;;;;;;46.33;23.40;;;1.30;99.90;;;;;;5038569;28;20055;-86
2022/01/10 06:53:55;;;;;;;32.17;16.35;;;1.30;99.90;;;;;;5038484;28;20057;-85
2022/01/10 06:56:21;;;;;;;29.73;15.32;;;1.40;99.90;;;;;;5038608;28;20021;-89
2022/01/10 06:58:47;;;;;;;28.98;14.15;;;1.40;99.90;;;;;;5056519;28;20032;-83
2022/01/10 07:01:17;;;;;;;31.60;15.25;;;1.40;99.90;;;;;;5056688;28;20060;-87
2022/01/10 07:03:44;;;;;;;33.60;15.52;;;1.40;99.90;;;;;;5038966;28;20422;-84
2022/01/10 07:06:10;;;;;;;29.20;14.70;;;1.40;99.90;;;;;;5056441;28;20478;-86
2022/01/10 07:08:35;;;;;;;28.02;13.75;;;1.50;99.90;;;;;;5038675;28;20033;-85
2022/01/10 07:11:01;;;;;;;26.92;14.32;;;1.50;99.90;;;;;;5038826;28;20025;-83
2022/01/10 07:13:27;;;;;;;27.63;13.48;;;1.60;99.90;;;;;;5037256;28;20074;-83
2022/01/10 07:15:52;;;;;;;39.92;20.60;;;1.60;99.90;;;;;;5037684;28;20032;-85
2022/01/10 07:18:18;;;;;;;34.60;17.92;;;1.60;99.90;;;;;;5056295;28;20029;-86
2022/01/10 07:20:44;;;;;;;29.13;14.57;;;1.70;99.90;;;;;;5057601;28;20022;-86
2022/01/10 07:23:10;;;;;;;26.52;13.50;;;1.70;99.90;;;;;;5060918;28;20524;-87
2022/01/10 07:25:36;;;;;;;27.80;14.50;;;1.80;99.90;;;;;;5038962;28;20036;-87
2022/01/10 07:28:02;;;;;;;25.48;13.48;;;1.80;99.90;;;;;;5038588;28;20423;-85
2022/01/10 07:30:28;;;;;;;26.02;13.50;;;1.80;99.90;;;;;;5037408;28;20112;-85
2022/01/10 07:32:54;;;;;;;29.70;14.05;;;1.80;99.90;;;;;;5055352;28;20031;-85
2022/01/10 07:35:20;;;;;;;22.00;11.73;;;1.80;99.90;;;;;;5055124;28;20442;-83
2022/01/10 07:37:45;;;;;;;61.13;28.83;;;1.80;99.90;;;;;;5036968;28;20036;-85
2022/01/10 07:40:12;;;;;;;47.63;22.60;;;1.80;99.90;;;;;;5053911;28;20036;-84
2022/01/10 07:42:37;;;;;;;37.95;18.15;;;1.80;99.90;;;;;;5035099;28;20404;-83
2022/01/10 07:45:04;;;;;;;29.88;16.30;;;1.80;99.90;;;;;;5034383;28;20029;-85
2022/01/10 07:47:30;;;;;;;32.55;14.93;;;1.80;99.90;;;;;;5033624;28;20048;-86
2022/01/10 07:49:56;;;;;;;32.15;15.43;;;1.80;99.90;;;;;;5050753;28;20159;-84
2022/01/10 07:52:22;;;;;;;30.80;15.20;;;1.80;99.90;;;;;;5034472;28;20794;-85
2022/01/10 07:54:57;;;;;;;25.80;13.25;;;1.80;99.90;;;;;;5033483;28;20044;-84
2022/01/10 07:57:22;;;;;;;28.15;12.82;;;1.80;99.90;;;;;;5034160;28;20048;-85
2022/01/10 07:59:48;;;;;;;39.38;19.63;;;1.80;99.90;;;;;;5054010;28;20491;-87
2022/01/10 08:02:20;;;;;;;34.90;16.83;;;1.80;99.90;;;;;;5036320;28;20048;-83
2022/01/10 08:04:46;;;;;;;33.33;15.85;;;1.80;99.90;;;;;;5055423;28;20036;-82
2022/01/10 08:07:12;;;;;;;32.70;16.15;;;1.80;99.90;;;;;;5038405;28;20375;-86
2022/01/10 08:09:38;;;;;;;28.92;14.77;;;1.80;99.90;;;;;;5037515;28;20035;-86
2022/01/10 08:12:04;;;;;;;32.80;14.27;;;1.80;99.90;;;;;;5055392;28;20021;-87
2022/01/10 08:14:33;;;;;;;33.33;14.98;;;1.80;99.90;;;;;;5037393;28;20423;-85
2022/01/10 08:16:59;;;;;;;25.70;13.02;;;1.80;99.90;;;;;;5036131;28;20035;-84
2022/01/10 08:19:27;;;;;;;28.73;14.00;;;1.80;99.90;;;;;;5036068;28;20032;-84
2022/01/10 08:21:55;;;;;;;28.80;14.57;;;1.70;99.90;;;;;;5053606;28;20029;-85
2022/01/10 08:24:22;;;;;;;33.05;15.23;;;1.60;99.90;;;;;;5036552;28;20039;-87
2022/01/10 08:26:49;;;;;;;29.42;14.77;;;1.60;99.90;;;;;;5054700;28;20056;-88
2022/01/10 08:29:17;;;;;;;31.67;15.30;;;1.60;99.90;;;;;;5037169;28;20032;-94
2022/01/10 08:31:44;;;;;;;31.25;15.50;;;1.60;99.90;;;;;;5055999;28;20113;-91
2022/01/10 08:34:11;;;;;;;38.97;17.75;;;1.50;99.90;;;;;;5036213;28;20463;-88
2022/01/10 08:36:37;;;;;;;45.03;22.60;;;1.40;99.90;;;;;;5035494;28;20025;-89
2022/01/10 08:39:07;;;;;;;39.10;18.52;;;1.30;99.90;;;;;;5053966;28;20041;-88
2022/01/10 08:41:35;;;;;;;32.65;15.40;;;1.40;99.90;;;;;;5035919;28;20032;-83
2022/01/10 08:44:05;;;;;;;28.48;13.98;;;1.40;99.90;;;;;;5053674;28;20021;-83
2022/01/10 08:46:31;;;;;;;33.97;16.23;;;1.40;99.90;;;;;;5053434;28;20483;-83
2022/01/10 08:48:56;;;;;;;30.65;14.30;;;1.40;99.90;;;;;;5053939;28;20040;-83
2022/01/10 08:51:24;;;;;;;26.73;13.10;;;1.40;99.90;;;;;;5036179;28;20028;-84
2022/01/10 08:53:50;;;;;;;24.55;11.40;;;1.30;99.90;;;;;;5053901;28;20516;-83
2022/01/10 08:56:15;;;;;;;23.58;11.25;;;1.40;99.90;;;;;;5035752;28;20033;-83
2022/01/10 08:58:41;;;;;;;21.35;10.57;;;1.30;99.90;;;;;;5035869;28;20036;-82
2022/01/10 09:01:08;;;;;;;25.42;11.60;;;1.30;99.90;;;;;;5053951;28;20467;-83
2022/01/10 09:03:34;;;;;;;22.83;11.25;;;1.20;99.90;;;;;;5053396;28;20029;-85
2022/01/10 09:06:00;;;;;;;22.17;11.57;;;1.30;99.90;;;;;;5053941;28;20035;-85
2022/01/10 09:08:31;;;;;;;21.77;11.23;;;1.30;99.90;;;;;;5035573;28;20402;-86
2022/01/10 09:10:57;;;;;;;;;;;1.20;99.90;;;;;;5053551;28;20045;-84
2022/01/10 09:13:23;;;;;;;85.43;43.53;;;1.10;99.90;;;;;;5053103;28;19905;-82
2022/01/10 09:15:49;;;;;;;58.30;27.92;;;1.10;99.90;;;;;;5053069;28;20375;-82
2022/01/10 09:18:16;;;;;;;41.80;20.48;;;1.20;99.90;;;;;;5053268;28;20072;-83
2022/01/10 09:20:43;;;;;;;29.73;15.73;;;1.20;99.90;;;;;;5035177;28;20033;-83
2022/01/10 09:23:09;;;;;;;30.45;15.60;;;1.20;99.90;;;;;;5035267;28;20033;-83
2022/01/10 09:25:35;;;;;;;27.75;13.75;;;1.20;99.90;;;;;;5053053;28;20029;-83
2022/01/10 09:28:01;;;;;;;23.60;12.10;;;1.20;99.90;;;;;;5035369;28;20379;-82
2022/01/10 09:30:27;;;;;;;19.60;10.90;;;1.20;99.90;;;;;;5035722;28;20053;-83
2022/01/10 09:32:54;;;;;;;19.83;9.88;;;1.10;99.90;;;;;;5052907;28;20021;-83
2022/01/10 09:35:20;;;;;;;20.02;10.13;;;1.20;99.90;;;;;;5053021;28;20025;-84
2022/01/10 09:37:46;;;;;;;17.90;9.10;;;1.20;99.90;;;;;;5052569;28;20029;-83
2022/01/10 09:40:12;;;;;;;18.27;9.52;;;1.20;99.90;;;;;;5035263;28;20087;-84
2022/01/10 09:42:38;;;;;;;18.10;9.48;;;1.30;99.90;;;;;;5053057;28;20060;-84
2022/01/10 09:45:06;;;;;;;20.63;10.43;;;1.30;99.90;;;;;;5053390;28;20060;-84
2022/01/10 09:47:31;;;;;;;19.10;10.57;;;1.30;99.90;;;;;;5035302;28;20301;-84
2022/01/10 09:49:57;;;;;;;18.70;10.30;;;1.30;99.90;;;;;;5056503;28;20032;-84
2022/01/10 09:52:23;;;;;;;16.83;8.77;;;1.30;99.90;;;;;;5056407;28;20024;-85
2022/01/10 09:54:50;;;;;;;84.38;41.90;;;1.30;99.90;;;;;;5038554;28;20033;-85
2022/01/10 09:57:16;;;;;;;39.90;19.23;;;1.30;99.90;;;;;;5056309;28;20140;-84
2022/01/10 09:59:43;;;;;;;24.52;12.63;;;1.30;99.90;;;;;;5056210;28;20024;-82
2022/01/10 10:02:10;;;;;;;17.70;10.00;;;1.30;99.90;;;;;;5057404;28;20044;-84
2022/01/10 10:04:37;;;;;;;14.45;8.52;;;1.30;99.90;;;;;;5056763;28;20460;-83
2022/01/10 10:07:05;;;;;;;13.45;8.10;;;1.30;99.90;;;;;;5039771;28;20025;-82
2022/01/10 10:09:31;;;;;;;13.93;7.63;;;1.30;99.90;;;;;;5035282;28;20555;-87
2022/01/10 10:11:57;;;;;;;13.27;7.28;;;1.30;99.90;;;;;;5018990;28;20129;-83
2022/01/10 10:14:23;;;;;;;13.50;7.32;;;1.30;99.90;;;;;;5021153;28;20026;-83
2022/01/10 10:16:52;;;;;;;41.33;20.70;;;1.30;99.90;;;;;;5036352;28;20036;-85
2022/01/10 10:19:24;;;;;;;21.88;11.85;;;1.30;99.90;;;;;;5036060;28;20069;-82
2022/01/10 10:21:51;;;;;;;16.40;8.70;;;1.40;99.90;;;;;;5018058;28;20034;-85
2022/01/10 10:24:17;;;;;;;16.35;8.50;;;1.40;99.90;;;;;;5036024;28;20032;-86
2022/01/10 10:26:43;;;;;;;15.00;8.65;;;1.40;99.90;;;;;;5018645;28;20025;-86
2022/01/10 10:29:13;;;;;;;16.13;8.60;;;1.40;99.90;;;;;;5018374;28;20120;-85
2022/01/10 10:31:49;;;;;;;15.50;8.70;;;1.40;99.90;;;;;;5018832;28;20172;-84
2022/01/10 10:34:20;;;;;;;17.20;9.00;;;1.40;99.90;;;;;;5018009;28;20025;-82
2022/01/10 10:36:57;;;;;;;18.80;10.52;;;1.40;99.90;;;;;;5035579;28;20429;-82
2022/01/10 10:39:25;;;;;;;20.70;10.15;;;1.30;99.90;;;;;;5017644;28;20030;-82
2022/01/10 10:41:58;;;;;;;17.55;9.52;;;1.30;99.90;;;;;;5035449;28;20030;-82
2022/01/10 10:44:24;;;;;;;15.35;8.85;;;1.30;99.90;;;;;;5035358;28;20387;-81
2022/01/10 10:46:51;;;;;;;15.88;9.05;;;1.20;99.90;;;;;;5035076;28;20029;-82
2022/01/10 10:49:20;;;;;;;14.35;8.60;;;1.30;99.90;;;;;;5035139;28;20141;-81
2022/01/10 10:51:50;;;;;;;15.32;8.68;;;1.30;99.90;;;;;;5017524;28;20033;-82
2022/01/10 10:54:20;;;;;;;14.27;8.10;;;1.30;99.90;;;;;;5033506;28;20079;-82
2022/01/10 10:56:46;;;;;;;16.77;8.80;;;1.30;99.90;;;;;;5015382;28;20091;-81
2022/01/10 10:59:12;;;;;;;16.00;8.75;;;1.30;99.90;;;;;;5015069;28;20391;-82
2022/01/10 11:01:40;;;;;;;13.88;8.18;;;1.40;99.90;;;;;;5015017;28;20041;-82
2022/01/10 11:04:09;;;;;;;11.65;7.43;;;1.40;99.90;;;;;;5033036;28;20098;-83
2022/01/10 11:06:35;;;;;;;12.23;7.03;;;1.40;99.90;;;;;;5032810;28;20471;-83
2022/01/10 11:09:09;;;;;;;12.50;7.18;;;1.40;99.90;;;;;;5016286;28;20033;-84
2022/01/10 11:11:35;;;;;;;12.35;7.32;;;1.40;99.90;;;;;;5035441;28;20105;-83
2022/01/10 11:14:01;;;;;;;11.10;7.25;;;1.40;99.90;;;;;;5034986;28;20049;-83
2022/01/10 11:16:29;;;;;;;13.98;7.88;;;1.40;99.90;;;;;;5016868;28;20095;-83
2022/01/10 11:18:55;;;;;;;15.13;7.95;;;1.40;99.90;;;;;;5034505;28;20037;-82
2022/01/10 11:21:23;;;;;;;13.93;7.47;;;1.40;99.90;;;;;;5016912;28;20463;-83
2022/01/10 11:23:50;;;;;;;13.75;7.07;;;1.40;99.90;;;;;;5034569;28;20464;-84
2022/01/10 11:26:17;;;;;;;15.27;8.10;;;1.40;99.90;;;;;;5035021;28;20072;-84
2022/01/10 11:28:49;;;;;;;14.75;8.50;;;1.40;99.90;;;;;;5018486;28;20033;-83
2022/01/10 11:31:20;;;;;;;12.98;7.75;;;1.30;99.90;;;;;;5034689;28;20364;-83
2022/01/10 11:33:46;;;;;;;14.30;8.00;;;1.40;99.90;;;;;;5034749;28;20026;-84
2022/01/10 11:36:13;;;;;;;18.15;9.40;;;1.40;99.90;;;;;;5034250;28;20033;-83
2022/01/10 11:38:55;;;;;;;17.73;9.65;;;1.40;99.90;;;;;;5016479;28;20064;-84
2022/01/10 11:41:25;;;;;;;17.10;9.40;;;1.40;99.90;;;;;;5034561;28;20026;-83
2022/01/10 11:43:55;;;;;;;16.53;9.73;;;1.40;99.90;;;;;;5016441;28;20025;-84
2022/01/10 11:46:22;;;;;;;18.23;10.63;;;1.30;99.90;;;;;;5034377;28;20259;-84
2022/01/10 11:48:51;;;;;;;20.35;10.52;;;1.30;99.90;;;;;;5034215;28;20028;-83
2022/01/10 11:51:22;;;;;;;19.98;10.20;;;1.30;99.90;;;;;;5016232;28;20029;-82
2022/01/10 11:53:59;;;;;;;18.87;9.57;;;1.30;99.90;;;;;;5034080;28;20108;-83
2022/01/10 11:56:31;;;;;;;15.93;9.13;;;1.30;99.90;;;;;;5016605;28;20087;-83
2022/01/10 11:59:30;;;;;;;17.60;9.73;;;1.30;99.90;;;;;;5034010;28;20175;-83
2022/01/10 12:02:20;;;;;;;20.55;10.10;;;1.30;99.90;;;;;;4981553;28;20061;-83
2022/01/10 12:05:02;;;;;;;20.45;11.15;;;1.40;99.90;;;;;;5006139;28;20032;-83
2022/01/10 12:07:28;;;;;;;23.80;11.95;;;1.40;99.90;;;;;;5003350;28;20033;-86
2022/01/10 12:09:54;;;;;;;20.23;11.18;;;1.30;99.90;;;;;;5032625;28;20439;-85
2022/01/10 12:12:24;;;;;;;21.15;10.98;;;1.30;99.90;;;;;;5031873;28;20487;-86
2022/01/10 12:14:52;;;;;;;21.70;11.13;;;1.30;99.90;;;;;;5032200;28;20053;-86
2022/01/10 12:17:18;;;;;;;18.23;9.70;;;1.20;99.90;;;;;;5032597;28;20405;-86
2022/01/10 12:19:44;;;;;;;16.70;9.10;;;1.20;99.90;;;;;;5014795;28;20037;-87
2022/01/10 12:22:10;;;;;;;20.17;10.18;;;1.30;99.90;;;;;;5032200;28;20116;-86
2022/01/10 12:24:37;;;;;;;16.45;9.88;;;1.30;99.90;;;;;;5012067;28;20117;-86
2022/01/10 12:27:05;;;;;;;16.65;10.05;;;1.20;99.90;;;;;;5032128;28;20076;-86
2022/01/10 12:29:31;;;;;;;21.23;10.82;;;1.20;99.90;;;;;;5014025;28;20036;-84
2022/01/10 12:31:58;;;;;;;19.35;10.57;;;1.20;99.90;;;;;;5032409;28;20083;-84
2022/01/10 12:34:25;;;;;;;19.27;10.50;;;1.20;99.90;;;;;;5014702;28;20032;-84
2022/01/10 12:36:51;;;;;;;18.70;10.30;;;1.10;99.90;;;;;;5013930;28;20026;-84
2022/01/10 12:39:24;;;;;;;18.55;10.95;;;1.10;99.90;;;;;;5011964;28;20129;-83
2022/01/10 12:41:50;;;;;;;18.50;10.32;;;1.00;99.90;;;;;;5024501;28;20095;-84
2022/01/10 12:44:16;;;;;;;21.50;11.82;;;1.00;99.90;;;;;;5011947;28;20077;-84
2022/01/10 12:46:42;;;;;;;21.00;11.85;;;1.00;99.90;;;;;;5032477;28;20427;-84